Time;durP1;ratioP1;P1;durP2;ratioP2;P2;SDS_P1;SDS_P2;PMS_P1;PMS_P2;Temp;Humidity;BMP_temperature;BMP_pressure;BME280_temperature;BME280_humidity;BME280_pressure;Samples;Min_cycle;Max_cycle;Signal;HPM_P1;HPM_P2
2022/08/06 00:02:20;;;;;;;2.53;0.65;;;15.80;71.00;;;;;;5046544;28;20265;-68
2022/08/06 00:04:46;;;;;;;2.53;1.05;;;15.80;71.70;;;;;;5050347;28;20045;-68
2022/08/06 00:07:12;;;;;;;4.03;1.10;;;15.80;71.50;;;;;;5048438;28;20086;-67
2022/08/06 00:09:38;;;;;;;3.38;1.10;;;15.70;71.40;;;;;;5065714;28;20088;-68
2022/08/06 00:12:04;;;;;;;3.63;1.27;;;15.70;72.00;;;;;;5046307;28;20095;-68
2022/08/06 00:14:30;;;;;;;2.17;1.00;;;15.60;72.10;;;;;;5041018;28;20099;-68
2022/08/06 00:16:56;;;;;;;4.75;1.25;;;15.60;72.00;;;;;;5021555;28;20462;-68
2022/08/06 00:19:22;;;;;;;4.78;1.42;;;15.60;72.50;;;;;;5044079;28;20144;-68
2022/08/06 00:21:48;;;;;;;6.10;1.40;;;15.60;73.30;;;;;;5029525;28;20049;-68
2022/08/06 00:24:14;;;;;;;2.30;0.90;;;15.50;73.40;;;;;;5031247;28;20064;-68
2022/08/06 00:26:40;;;;;;;3.13;1.33;;;15.50;73.20;;;;;;5012463;28;20049;-69
2022/08/06 00:29:06;;;;;;;2.47;0.90;;;15.40;73.70;;;;;;5031334;28;20053;-68
2022/08/06 00:31:32;;;;;;;4.88;1.00;;;15.40;73.40;;;;;;5048286;28;20041;-67
2022/08/06 00:34:00;;;;;;;5.93;1.00;;;15.40;72.80;;;;;;5032071;28;20140;-68
2022/08/06 00:36:26;;;;;;;3.95;0.95;;;15.30;73.00;;;;;;5044117;28;20051;-67
2022/08/06 00:38:52;;;;;;;1.63;1.00;;;15.20;73.30;;;;;;5048612;28;20049;-67
2022/08/06 00:41:18;;;;;;;1.42;0.90;;;15.10;73.70;;;;;;5048952;28;20490;-67
2022/08/06 00:43:44;;;;;;;4.68;1.08;;;15.00;73.90;;;;;;5032098;28;20057;-68
2022/08/06 00:46:10;;;;;;;2.13;1.00;;;15.00;74.20;;;;;;5031899;28;20747;-67
2022/08/06 00:48:35;;;;;;;5.32;1.10;;;15.10;73.60;;;;;;5027460;28;20049;-67
2022/08/06 00:51:01;;;;;;;1.80;0.70;;;15.10;73.80;;;;;;5045354;28;20041;-68
2022/08/06 00:53:27;;;;;;;2.92;1.02;;;15.10;73.40;;;;;;5030610;28;20041;-67
2022/08/06 00:55:53;;;;;;;2.65;0.90;;;15.00;73.60;;;;;;5011126;28;20045;-67
2022/08/06 00:58:19;;;;;;;1.98;0.82;;;15.00;74.00;;;;;;5047317;28;20054;-68
2022/08/06 01:00:44;;;;;;;3.22;1.10;;;14.90;74.40;;;;;;5027763;28;20053;-67
2022/08/06 01:03:10;;;;;;;5.13;1.00;;;14.90;74.30;;;;;;5048220;28;20052;-67
2022/08/06 01:05:36;;;;;;;2.63;1.40;;;14.80;75.00;;;;;;5030490;28;20049;-68
2022/08/06 01:08:03;;;;;;;4.68;1.10;;;14.70;74.90;;;;;;5019880;28;20049;-67
2022/08/06 01:10:29;;;;;;;3.13;1.00;;;14.70;75.50;;;;;;5032099;28;20037;-67
2022/08/06 01:12:55;;;;;;;3.85;1.20;;;14.60;75.90;;;;;;5045236;28;20048;-68
2022/08/06 01:15:20;;;;;;;4.18;1.02;;;14.50;76.30;;;;;;5037972;28;20075;-68
2022/08/06 01:17:58;;;;;;;3.13;1.13;;;14.50;76.40;;;;;;5046501;28;20049;-68
2022/08/06 01:20:30;;;;;;;3.50;0.90;;;14.60;76.10;;;;;;5046564;28;20048;-67
2022/08/06 01:23:18;;;;;;;4.07;1.00;;;14.50;76.10;;;;;;5047807;28;20047;-68
2022/08/06 01:25:47;;;;;;;2.13;0.87;;;14.50;76.50;;;;;;5040784;28;20084;-68
2022/08/06 01:28:15;;;;;;;1.83;0.95;;;14.40;76.80;;;;;;5045903;28;20370;-68
2022/08/06 01:30:45;;;;;;;4.65;1.00;;;14.40;76.80;;;;;;5046818;28;20072;-67
2022/08/06 01:33:18;;;;;;;4.53;1.17;;;14.40;76.70;;;;;;5013989;28;20045;-67
2022/08/06 01:35:59;;;;;;;5.07;1.20;;;14.40;76.70;;;;;;4999176;28;20432;-62
2022/08/06 01:38:43;;;;;;;1.33;0.80;;;14.30;77.10;;;;;;5041476;28;20131;-61
2022/08/06 01:41:11;;;;;;;4.38;1.10;;;14.30;77.30;;;;;;5048739;28;20059;-62
2022/08/06 01:43:37;;;;;;;1.70;0.90;;;14.30;77.40;;;;;;5025613;28;20068;-62
2022/08/06 01:46:03;;;;;;;3.45;0.90;;;14.20;77.50;;;;;;5019164;28;21054;-63
2022/08/06 01:48:28;;;;;;;2.90;1.10;;;14.20;77.70;;;;;;5018425;28;20442;-62
2022/08/06 01:50:57;;;;;;;6.63;1.33;;;14.20;77.50;;;;;;5056899;28;20037;-61
2022/08/06 01:53:29;;;;;;;1.50;0.95;;;14.20;77.70;;;;;;5024648;28;20075;-62
2022/08/06 01:55:57;;;;;;;1.58;0.88;;;14.10;77.60;;;;;;5041732;28;20063;-61
2022/08/06 01:58:33;;;;;;;2.53;0.90;;;14.10;77.60;;;;;;5027957;28;20044;-63
2022/08/06 02:01:01;;;;;;;3.25;1.00;;;14.10;78.00;;;;;;5025259;28;20087;-62
2022/08/06 02:03:51;;;;;;;3.53;1.02;;;14.10;77.70;;;;;;5042169;28;20099;-62
2022/08/06 02:06:26;;;;;;;4.28;1.08;;;14.20;77.90;;;;;;5035352;28;20055;-61
2022/08/06 02:08:51;;;;;;;2.08;1.02;;;14.00;78.30;;;;;;5043258;28;20048;-62
2022/08/06 02:11:17;;;;;;;4.28;1.10;;;14.10;77.80;;;;;;5045805;28;20078;-63
2022/08/06 02:13:43;;;;;;;3.72;1.02;;;14.10;77.80;;;;;;5044555;28;20044;-62
2022/08/06 02:16:09;;;;;;;5.95;1.30;;;14.10;78.30;;;;;;5044942;28;20071;-63
2022/08/06 02:18:37;;;;;;;3.65;1.20;;;14.00;78.60;;;;;;5027307;28;20044;-62
2022/08/06 02:21:15;;;;;;;2.03;1.03;;;14.00;78.40;;;;;;5029807;28;20041;-62
2022/08/06 02:23:40;;;;;;;3.50;1.40;;;14.00;78.00;;;;;;5057880;28;20690;-62
2022/08/06 02:26:06;;;;;;;1.65;0.98;;;14.00;78.50;;;;;;5044422;28;20049;-62
2022/08/06 02:28:32;;;;;;;3.22;1.30;;;14.00;78.50;;;;;;5046426;28;20180;-62
2022/08/06 02:31:01;;;;;;;6.45;1.00;;;14.00;78.50;;;;;;5047300;28;20055;-62
2022/08/06 02:33:27;;;;;;;3.50;1.00;;;14.00;78.20;;;;;;5059290;28;20493;-62
2022/08/06 02:36:01;;;;;;;5.45;1.00;;;14.00;78.30;;;;;;5026782;28;20048;-62
2022/08/06 02:38:39;;;;;;;8.20;1.88;;;14.00;78.50;;;;;;5045944;28;20044;-62
2022/08/06 02:41:35;;;;;;;4.70;1.17;;;14.00;79.00;;;;;;5061976;28;20433;-62
2022/08/06 02:44:17;;;;;;;4.70;1.08;;;14.00;78.30;;;;;;5057352;28;20055;-62
2022/08/06 02:46:50;;;;;;;1.92;0.98;;;14.00;78.40;;;;;;5029325;28;20060;-61
2022/08/06 02:49:20;;;;;;;5.05;0.95;;;14.00;78.70;;;;;;5058327;28;20124;-62
2022/08/06 02:51:57;;;;;;;2.53;0.90;;;14.00;78.40;;;;;;5039392;28;20541;-61
2022/08/06 02:54:28;;;;;;;2.17;0.90;;;14.00;78.50;;;;;;5026850;28;20052;-62
2022/08/06 02:57:03;;;;;;;1.67;0.95;;;14.00;78.70;;;;;;5029312;28;20086;-62
2022/08/06 02:59:31;;;;;;;5.03;0.98;;;13.90;79.00;;;;;;5029062;28;20055;-61
2022/08/06 03:01:59;;;;;;;3.40;1.00;;;13.90;79.30;;;;;;5046790;28;20045;-62
2022/08/06 03:04:25;;;;;;;4.47;1.63;;;14.00;78.90;;;;;;5027792;28;20055;-63
2022/08/06 03:06:51;;;;;;;2.03;1.10;;;13.90;79.10;;;;;;5040797;28;20041;-61
2022/08/06 03:09:17;;;;;;;5.05;1.10;;;13.90;79.10;;;;;;5042642;28;20082;-62
2022/08/06 03:11:42;;;;;;;4.43;1.45;;;13.90;78.90;;;;;;5044844;28;20049;-62
2022/08/06 03:14:09;;;;;;;2.50;1.13;;;13.90;78.90;;;;;;5028446;28;20048;-62
2022/08/06 03:16:35;;;;;;;2.55;0.95;;;13.90;79.00;;;;;;5042124;28;20196;-62
2022/08/06 03:19:01;;;;;;;4.00;1.20;;;14.00;78.80;;;;;;5010545;28;20053;-62
2022/08/06 03:21:27;;;;;;;4.32;1.30;;;14.00;78.50;;;;;;5044247;28;20055;-62
2022/08/06 03:23:53;;;;;;;2.45;1.02;;;13.90;78.90;;;;;;5025477;28;20057;-62
2022/08/06 03:26:19;;;;;;;2.95;0.90;;;13.80;79.30;;;;;;5061052;28;20151;-63
2022/08/06 03:28:44;;;;;;;3.10;1.25;;;13.90;79.60;;;;;;5021768;28;20379;-62
2022/08/06 03:31:10;;;;;;;2.63;1.00;;;13.90;79.10;;;;;;5040645;28;20091;-62
2022/08/06 03:33:36;;;;;;;4.53;1.27;;;13.90;79.40;;;;;;5047830;28;20173;-62
2022/08/06 03:36:03;;;;;;;3.85;1.00;;;13.80;79.30;;;;;;5015386;28;20376;-62
2022/08/06 03:38:34;;;;;;;2.67;1.20;;;13.80;79.60;;;;;;5043334;28;20071;-62
2022/08/06 03:41:00;;;;;;;3.58;1.23;;;13.80;79.50;;;;;;5043349;28;20053;-62
2022/08/06 03:43:25;;;;;;;3.20;1.20;;;13.80;79.70;;;;;;5032249;28;20045;-63
2022/08/06 03:45:53;;;;;;;3.50;1.30;;;13.80;79.60;;;;;;5044223;28;20060;-63
2022/08/06 03:48:23;;;;;;;3.67;1.37;;;13.80;79.60;;;;;;5047571;28;20060;-62
2022/08/06 03:50:49;;;;;;;3.78;1.65;;;13.90;79.50;;;;;;5045140;28;20542;-61
2022/08/06 03:53:20;;;;;;;4.97;1.30;;;13.80;79.50;;;;;;5043245;28;20808;-61
2022/08/06 03:55:47;;;;;;;4.65;1.38;;;13.80;79.90;;;;;;5011557;28;20048;-65
2022/08/06 03:58:15;;;;;;;1.85;1.00;;;13.90;79.40;;;;;;5026360;28;20049;-62
2022/08/06 04:00:50;;;;;;;3.63;1.35;;;13.80;79.90;;;;;;5026586;28;20053;-62
2022/08/06 04:03:17;;;;;;;2.50;1.10;;;13.70;80.20;;;;;;5044818;28;20478;-66
2022/08/06 04:05:44;;;;;;;5.20;1.30;;;13.70;80.40;;;;;;5033157;28;20054;-62
2022/08/06 04:08:11;;;;;;;4.13;1.30;;;13.70;80.50;;;;;;5031188;28;20079;-62
2022/08/06 04:10:48;;;;;;;4.78;1.75;;;13.60;80.40;;;;;;5013553;28;20395;-62
2022/08/06 04:13:16;;;;;;;2.45;1.48;;;13.60;80.90;;;;;;5047957;28;20048;-62
2022/08/06 04:15:43;;;;;;;;;;;13.60;80.70;;;;;;5049506;28;20041;-62
2022/08/06 04:18:14;;;;;;;2.92;1.30;;;13.60;80.30;;;;;;5049800;28;19912;-67
2022/08/06 04:20:46;;;;;;;4.93;1.42;;;13.60;80.40;;;;;;5032342;28;20056;-64
2022/08/06 04:23:14;;;;;;;6.10;1.50;;;13.60;80.80;;;;;;5014042;28;20064;-61
2022/08/06 04:25:47;;;;;;;4.43;1.77;;;13.60;81.10;;;;;;5032902;28;20068;-61
2022/08/06 04:28:14;;;;;;;4.65;1.27;;;13.50;81.00;;;;;;4999633;28;20065;-63
2022/08/06 04:30:41;;;;;;;4.38;1.60;;;13.60;81.00;;;;;;5031679;28;20434;-62
2022/08/06 04:33:14;;;;;;;4.53;1.33;;;13.50;81.20;;;;;;5015166;28;20355;-62
2022/08/06 04:35:41;;;;;;;2.85;1.30;;;13.50;81.10;;;;;;5048840;28;20040;-62
2022/08/06 04:38:09;;;;;;;5.22;1.20;;;13.60;80.50;;;;;;5047978;28;20076;-62
2022/08/06 04:40:36;;;;;;;4.55;2.05;;;13.70;80.20;;;;;;5015797;28;20055;-62
2022/08/06 04:43:10;;;;;;;3.50;1.10;;;13.80;80.10;;;;;;5015427;28;20048;-62
2022/08/06 04:45:43;;;;;;;4.25;1.30;;;13.70;80.30;;;;;;5032080;28;20044;-62
2022/08/06 04:48:11;;;;;;;6.05;1.48;;;13.80;80.30;;;;;;5031404;28;20049;-62
2022/08/06 04:50:38;;;;;;;4.43;1.50;;;13.80;80.20;;;;;;5048734;28;20045;-61
2022/08/06 04:53:15;;;;;;;12.13;2.45;;;13.90;80.00;;;;;;5030814;28;20095;-63
2022/08/06 04:55:43;;;;;;;3.37;1.50;;;13.90;80.00;;;;;;5048681;28;20040;-61
2022/08/06 04:58:12;;;;;;;2.33;1.48;;;13.90;80.30;;;;;;5015501;28;20829;-61
2022/08/06 05:00:44;;;;;;;5.43;1.55;;;13.90;80.40;;;;;;4998797;28;20260;-62
2022/08/06 05:03:10;;;;;;;4.10;1.27;;;13.90;80.30;;;;;;5048344;28;20051;-61
2022/08/06 05:06:02;;;;;;;4.35;1.50;;;13.90;80.50;;;;;;5047754;28;20423;-62
2022/08/06 05:08:29;;;;;;;2.78;1.27;;;14.00;80.40;;;;;;5013635;28;20064;-62
2022/08/06 05:11:06;;;;;;;3.70;1.48;;;14.00;80.20;;;;;;5048414;28;20501;-62
2022/08/06 05:13:36;;;;;;;4.30;1.52;;;14.00;79.60;;;;;;5015395;28;20562;-62
2022/08/06 05:16:05;;;;;;;3.13;1.40;;;14.10;79.70;;;;;;5007438;28;20042;-62
2022/08/06 05:18:39;;;;;;;3.80;1.40;;;14.10;79.60;;;;;;5023197;28;20566;-62
2022/08/06 05:21:06;;;;;;;3.13;1.25;;;14.20;79.40;;;;;;5014193;28;20379;-61
2022/08/06 05:23:53;;;;;;;3.50;1.17;;;14.20;79.60;;;;;;5026482;28;20049;-68
2022/08/06 05:26:21;;;;;;;3.80;1.40;;;14.30;79.50;;;;;;5030821;28;20132;-66
2022/08/06 05:28:48;;;;;;;3.57;1.47;;;14.20;79.70;;;;;;5031742;28;20053;-61
2022/08/06 05:31:14;;;;;;;4.57;1.40;;;14.20;79.70;;;;;;5031582;28;20386;-62
2022/08/06 05:33:40;;;;;;;5.35;2.00;;;14.20;79.60;;;;;;5022202;28;20045;-63
2022/08/06 05:36:10;;;;;;;4.53;1.52;;;14.20;79.40;;;;;;5038182;28;20041;-65
2022/08/06 05:38:38;;;;;;;2.83;1.10;;;14.10;79.90;;;;;;4987182;28;20075;-64
2022/08/06 05:41:05;;;;;;;6.07;1.77;;;14.30;79.70;;;;;;5059989;28;20449;-64
2022/08/06 05:43:31;;;;;;;6.25;1.45;;;14.30;79.40;;;;;;5009765;28;20108;-65
2022/08/06 05:45:59;;;;;;;4.35;1.50;;;14.30;79.40;;;;;;5042960;28;20063;-61
2022/08/06 05:48:24;;;;;;;3.20;1.17;;;14.30;80.20;;;;;;5036126;28;20144;-62
2022/08/06 05:50:54;;;;;;;3.15;1.40;;;14.30;79.80;;;;;;5036671;28;20134;-62
2022/08/06 05:53:27;;;;;;;2.35;1.35;;;14.30;79.80;;;;;;5009058;28;20038;-61
2022/08/06 05:56:08;;;;;;;6.15;1.63;;;14.30;80.30;;;;;;5003614;28;20442;-63
2022/08/06 05:58:43;;;;;;;3.38;1.35;;;14.40;79.80;;;;;;5007861;28;20053;-61
2022/08/06 06:01:08;;;;;;;4.47;1.30;;;14.40;79.70;;;;;;5045237;28;20184;-61
2022/08/06 06:03:35;;;;;;;6.35;1.88;;;14.50;79.70;;;;;;5019593;28;20158;-62
2022/08/06 06:06:01;;;;;;;2.20;1.20;;;14.60;79.50;;;;;;4994105;28;20077;-61
2022/08/06 06:08:27;;;;;;;1.92;1.20;;;14.60;79.10;;;;;;5013498;28;20056;-61
2022/08/06 06:10:53;;;;;;;4.20;1.42;;;14.60;79.00;;;;;;4996051;28;20042;-61
2022/08/06 06:13:20;;;;;;;5.32;1.80;;;14.60;79.40;;;;;;4997050;28;20494;-61
2022/08/06 06:16:06;;;;;;;6.10;1.25;;;14.60;79.90;;;;;;4995976;28;20053;-62
2022/08/06 06:18:45;;;;;;;2.05;1.13;;;14.70;79.90;;;;;;5045440;28;20140;-62
2022/08/06 06:21:28;;;;;;;5.55;1.23;;;14.70;79.80;;;;;;5000356;28;20060;-62
2022/08/06 06:23:55;;;;;;;3.35;1.10;;;14.70;79.10;;;;;;4997947;28;20088;-62
2022/08/06 06:26:24;;;;;;;1.98;1.27;;;14.70;79.30;;;;;;5022040;28;20604;-63
2022/08/06 06:29:08;;;;;;;4.22;1.27;;;14.80;79.50;;;;;;5041088;28;20060;-61
2022/08/06 06:31:44;;;;;;;6.88;1.55;;;14.80;79.40;;;;;;5011630;28;20038;-61
2022/08/06 06:34:39;;;;;;;6.15;1.65;;;14.80;79.10;;;;;;4995009;28;20046;-61
2022/08/06 06:37:21;;;;;;;4.30;1.10;;;14.90;78.90;;;;;;5011255;28;20476;-62
2022/08/06 06:40:02;;;;;;;2.40;1.30;;;15.00;78.90;;;;;;4994984;28;20050;-62
2022/08/06 06:42:31;;;;;;;6.25;1.30;;;15.00;79.20;;;;;;5041460;28;20045;-62
2022/08/06 06:45:16;;;;;;;2.42;0.93;;;15.10;79.00;;;;;;5006183;28;20041;-61
2022/08/06 06:47:58;;;;;;;3.35;1.10;;;15.10;78.90;;;;;;5011836;28;20050;-62
2022/08/06 06:50:27;;;;;;;2.08;0.95;;;15.20;78.70;;;;;;5011928;28;20041;-61
2022/08/06 06:52:53;;;;;;;6.70;1.08;;;15.20;78.50;;;;;;5024440;28;20041;-63
2022/08/06 06:55:45;;;;;;;3.22;1.08;;;15.30;78.90;;;;;;5011170;28;20053;-61
2022/08/06 06:58:19;;;;;;;2.65;1.05;;;15.30;78.20;;;;;;5011677;28;20100;-62
2022/08/06 07:00:45;;;;;;;4.07;1.00;;;15.30;78.50;;;;;;5012046;28;20472;-63
2022/08/06 07:03:11;;;;;;;4.50;1.25;;;15.40;78.20;;;;;;5016640;28;20045;-61
2022/08/06 07:05:43;;;;;;;4.80;1.17;;;15.50;77.90;;;;;;5010461;28;21067;-61
2022/08/06 07:08:09;;;;;;;6.00;1.25;;;15.50;78.30;;;;;;5008773;28;20475;-62
2022/08/06 07:10:34;;;;;;;6.75;1.10;;;15.60;77.90;;;;;;5019177;28;20061;-61
2022/08/06 07:13:00;;;;;;;3.35;1.10;;;15.60;77.50;;;;;;4978247;28;20056;-61
2022/08/06 07:15:26;;;;;;;2.15;0.80;;;15.60;76.80;;;;;;5014381;28;20045;-62
2022/08/06 07:17:52;;;;;;;6.78;0.95;;;15.60;76.70;;;;;;4994375;28;20053;-63
2022/08/06 07:20:37;;;;;;;2.85;1.10;;;15.70;76.70;;;;;;5010693;28;20132;-62
2022/08/06 07:23:06;;;;;;;3.55;0.88;;;15.80;76.60;;;;;;4996818;28;20538;-61
2022/08/06 07:25:37;;;;;;;2.30;0.80;;;15.80;76.70;;;;;;5014886;28;20121;-62
2022/08/06 07:28:03;;;;;;;3.38;0.90;;;15.90;77.30;;;;;;5013590;28;20064;-61
2022/08/06 07:30:28;;;;;;;4.93;1.02;;;16.00;76.20;;;;;;5000662;28;20050;-62
2022/08/06 07:32:54;;;;;;;2.40;0.70;;;16.00;76.20;;;;;;4999510;28;20044;-62
2022/08/06 07:35:20;;;;;;;4.07;0.88;;;16.10;75.80;;;;;;4999168;28;20542;-63
2022/08/06 07:38:00;;;;;;;4.70;0.93;;;16.20;76.10;;;;;;5040409;28;20049;-62
2022/08/06 07:40:30;;;;;;;2.67;0.70;;;16.20;75.80;;;;;;5006765;28;20115;-63
2022/08/06 07:43:03;;;;;;;3.10;0.70;;;16.20;74.00;;;;;;5022544;28;20057;-62
2022/08/06 07:45:31;;;;;;;3.78;0.63;;;16.30;74.60;;;;;;5013199;28;20057;-62
2022/08/06 07:47:57;;;;;;;3.97;0.75;;;16.30;74.70;;;;;;5010426;28;20410;-62
2022/08/06 07:50:23;;;;;;;2.35;0.90;;;16.40;74.40;;;;;;5010748;28;20060;-62
2022/08/06 07:52:50;;;;;;;3.00;0.70;;;16.50;74.20;;;;;;5000072;28;20128;-62
2022/08/06 07:55:17;;;;;;;1.92;0.70;;;16.50;73.10;;;;;;4993841;28;20045;-62
2022/08/06 07:57:43;;;;;;;5.95;0.80;;;16.40;72.40;;;;;;5010231;28;20073;-62
2022/08/06 08:00:09;;;;;;;4.25;0.80;;;16.40;72.20;;;;;;4985571;28;20107;-62
2022/08/06 08:02:35;;;;;;;2.70;0.90;;;16.50;72.60;;;;;;5025839;28;20079;-62
2022/08/06 08:07:45;;;;;;;4.20;0.90;;;16.80;72.90;;;;;;5010543;28;20053;-62
2022/08/06 08:10:11;;;;;;;5.05;0.95;;;16.80;71.80;;;;;;5021926;28;20493;-63
2022/08/06 08:12:37;;;;;;;3.33;0.80;;;16.80;71.00;;;;;;5006127;28;20786;-62
2022/08/06 08:15:04;;;;;;;5.88;0.73;;;16.80;70.80;;;;;;5013749;28;20055;-62
2022/08/06 08:17:30;;;;;;;4.30;0.93;;;16.80;70.50;;;;;;5020586;28;20042;-62
2022/08/06 08:20:00;;;;;;;6.80;1.48;;;16.90;71.00;;;;;;5021965;28;20106;-62
2022/08/06 08:22:26;;;;;;;5.82;0.57;;;16.90;68.50;;;;;;5004722;28;20073;-63
2022/08/06 08:24:52;;;;;;;5.15;0.65;;;16.90;69.60;;;;;;5023363;28;20068;-63
2022/08/06 08:27:17;;;;;;;1.35;0.70;;;17.00;69.50;;;;;;5023435;28;20068;-62
2022/08/06 08:29:43;;;;;;;4.38;1.00;;;17.10;69.70;;;;;;5016239;28;20077;-63
2022/08/06 08:32:09;;;;;;;3.30;1.05;;;17.30;69.10;;;;;;5010356;28;20044;-63
2022/08/06 08:34:38;;;;;;;2.80;0.82;;;17.40;68.90;;;;;;5012375;28;20053;-62
2022/08/06 08:37:03;;;;;;;4.63;1.40;;;17.40;66.80;;;;;;5044720;28;20049;-62
2022/08/06 08:39:30;;;;;;;4.13;0.70;;;17.40;67.50;;;;;;5016435;28;20060;-62
2022/08/06 08:42:06;;;;;;;2.35;0.63;;;17.40;67.60;;;;;;5018363;28;20045;-63
2022/08/06 08:44:32;;;;;;;2.67;0.50;;;17.60;68.10;;;;;;5024549;28;20053;-62
2022/08/06 08:46:59;;;;;;;5.10;0.80;;;17.70;66.50;;;;;;5022340;28;20479;-62
2022/08/06 08:49:38;;;;;;;4.07;0.63;;;17.60;65.20;;;;;;4996810;28;20057;-62
2022/08/06 08:52:06;;;;;;;1.98;0.60;;;17.60;65.50;;;;;;5005759;28;20144;-62
2022/08/06 08:54:33;;;;;;;;;;;17.70;65.30;;;;;;5001604;28;20044;-62
2022/08/06 08:56:59;;;;;;;2.92;0.80;;;17.80;65.20;;;;;;5054747;28;19913;-62
2022/08/06 08:59:25;;;;;;;3.05;0.60;;;17.80;65.00;;;;;;4976223;28;20055;-63
2022/08/06 09:01:51;;;;;;;2.30;0.68;;;17.80;66.00;;;;;;5034286;28;20049;-63
2022/08/06 09:04:17;;;;;;;3.28;0.75;;;17.80;65.10;;;;;;5009097;28;20395;-62
2022/08/06 09:06:43;;;;;;;2.10;0.80;;;17.70;64.20;;;;;;5034237;28;20045;-63
2022/08/06 09:09:08;;;;;;;1.83;0.57;;;17.80;63.20;;;;;;5011042;28;20057;-62
2022/08/06 09:11:35;;;;;;;2.88;0.70;;;17.60;62.40;;;;;;4997104;28;20128;-62
2022/08/06 09:14:04;;;;;;;2.63;0.50;;;17.40;62.80;;;;;;4998229;28;20042;-63
2022/08/06 09:16:34;;;;;;;2.00;0.50;;;17.30;62.90;;;;;;5024604;28;20121;-62
2022/08/06 09:19:00;;;;;;;3.20;0.57;;;17.20;62.60;;;;;;5019343;28;20072;-63
2022/08/06 09:21:28;;;;;;;5.65;1.48;;;17.40;62.60;;;;;;5014181;28;20080;-62
2022/08/06 09:23:54;;;;;;;2.10;0.52;;;17.40;61.40;;;;;;5017000;28;20179;-64
2022/08/06 09:26:20;;;;;;;2.88;0.50;;;17.60;63.40;;;;;;4993183;28;20791;-62
2022/08/06 09:28:47;;;;;;;1.70;0.50;;;17.90;63.10;;;;;;4997296;28;20065;-61
2022/08/06 09:31:17;;;;;;;1.88;0.43;;;18.10;61.30;;;;;;5011000;28;20119;-61
2022/08/06 09:34:04;;;;;;;3.88;0.70;;;18.10;58.30;;;;;;5008807;28;20108;-61
2022/08/06 09:36:43;;;;;;;1.42;0.40;;;18.00;60.00;;;;;;5018779;28;20045;-61
2022/08/06 09:39:09;;;;;;;2.63;0.68;;;18.10;61.00;;;;;;5031202;28;20045;-61
2022/08/06 09:41:49;;;;;;;3.05;0.50;;;18.10;60.50;;;;;;4992798;28;20095;-61
2022/08/06 09:44:15;;;;;;;4.68;0.60;;;18.20;62.50;;;;;;5013730;28;20817;-60
2022/08/06 09:46:45;;;;;;;4.30;0.80;;;18.40;63.20;;;;;;5011981;28;20114;-62
2022/08/06 09:49:12;;;;;;;1.45;0.52;;;18.60;62.60;;;;;;5010545;28;20348;-61
2022/08/06 09:51:38;;;;;;;3.50;1.13;;;18.80;59.20;;;;;;4994761;28;20042;-64
2022/08/06 09:54:07;;;;;;;3.55;0.60;;;18.80;58.60;;;;;;5036150;28;20044;-64
2022/08/06 09:56:32;;;;;;;;;;;18.60;59.30;;;;;;5017459;28;20049;-61
2022/08/06 09:59:02;;;;;;;3.05;0.73;;;18.60;59.40;;;;;;5050367;28;19917;-62
2022/08/06 10:01:28;;;;;;;5.03;0.85;;;18.70;59.40;;;;;;5002194;28;20220;-62
2022/08/06 10:03:55;;;;;;;1.67;0.50;;;18.80;60.50;;;;;;5013076;28;20434;-64
2022/08/06 10:06:21;;;;;;;2.25;0.50;;;19.00;60.70;;;;;;5013665;28;20050;-61
2022/08/06 10:09:03;;;;;;;1.40;0.60;;;19.00;60.20;;;;;;4996274;28;20155;-62
2022/08/06 10:11:34;;;;;;;1.55;0.40;;;19.20;59.30;;;;;;5014760;28;20535;-62
2022/08/06 10:14:00;;;;;;;2.00;0.57;;;19.40;59.60;;;;;;4992445;28;20076;-65
2022/08/06 10:16:29;;;;;;;2.25;0.45;;;19.40;54.30;;;;;;4995427;28;20376;-62
2022/08/06 10:18:56;;;;;;;4.05;0.52;;;19.10;54.50;;;;;;4996271;28;20041;-62
2022/08/06 10:21:23;;;;;;;1.40;0.50;;;19.00;56.10;;;;;;4992491;28;20440;-61
2022/08/06 10:23:50;;;;;;;2.88;0.60;;;19.00;57.30;;;;;;4998573;28;20475;-65
2022/08/06 10:26:19;;;;;;;2.72;0.75;;;19.10;56.10;;;;;;5010421;28;20049;-62
2022/08/06 10:28:46;;;;;;;2.28;0.50;;;19.30;55.40;;;;;;4991550;28;20054;-62
2022/08/06 10:31:13;;;;;;;0.82;0.38;;;19.20;53.40;;;;;;4993101;28;20061;-62
2022/08/06 10:33:55;;;;;;;1.10;0.32;;;19.30;54.30;;;;;;5014924;28;20761;-63
2022/08/06 10:36:25;;;;;;;2.38;0.65;;;19.40;52.80;;;;;;5011791;28;20042;-61
2022/08/06 10:38:51;;;;;;;3.15;0.60;;;19.50;52.70;;;;;;5011288;28;20518;-63
2022/08/06 10:41:17;;;;;;;2.63;0.45;;;19.80;53.90;;;;;;5012269;28;20064;-63
2022/08/06 10:43:43;;;;;;;4.07;0.75;;;20.00;54.10;;;;;;5011251;28;20655;-63
2022/08/06 10:46:19;;;;;;;1.20;0.25;;;20.00;53.70;;;;;;5017422;28;20050;-63
2022/08/06 10:48:46;;;;;;;4.03;0.73;;;19.90;53.90;;;;;;5012627;28;20073;-63
2022/08/06 10:51:12;;;;;;;2.50;0.40;;;19.60;55.00;;;;;;5013223;28;20048;-63
2022/08/06 10:53:43;;;;;;;1.70;0.55;;;19.50;53.40;;;;;;5021859;28;20041;-63
2022/08/06 10:56:11;;;;;;;1.65;0.45;;;19.60;53.60;;;;;;5011279;28;20054;-63
2022/08/06 10:58:37;;;;;;;;;;;19.70;54.00;;;;;;5018264;28;20064;-63
2022/08/06 11:01:15;;;;;;;2.45;0.68;;;19.80;54.30;;;;;;5019147;28;20370;-62
2022/08/06 11:03:51;;;;;;;0.73;0.40;;;20.00;51.50;;;;;;5007056;28;20053;-64
2022/08/06 11:06:36;;;;;;;1.17;0.40;;;20.10;51.90;;;;;;5018657;28;20048;-62
2022/08/06 11:09:36;;;;;;;2.13;0.40;;;20.30;50.80;;;;;;5033108;28;20092;-63
2022/08/06 11:12:21;;;;;;;1.95;0.30;;;20.40;50.90;;;;;;5032696;28;20053;-62
2022/08/06 11:14:47;;;;;;;3.63;0.50;;;20.60;51.80;;;;;;5019371;28;20045;-62
2022/08/06 11:17:13;;;;;;;4.65;1.38;;;20.70;51.20;;;;;;5018462;28;20041;-62
2022/08/06 11:19:39;;;;;;;4.25;2.00;;;20.90;52.90;;;;;;5020728;28;20876;-62
2022/08/06 11:22:05;;;;;;;4.07;1.30;;;21.00;51.20;;;;;;5032936;28;20049;-62
2022/08/06 11:24:31;;;;;;;1.63;0.70;;;21.10;50.70;;;;;;5033470;28;20056;-62
2022/08/06 11:26:57;;;;;;;3.25;0.85;;;21.20;49.30;;;;;;5019520;28;20138;-62
2022/08/06 11:29:23;;;;;;;1.70;0.40;;;21.30;47.20;;;;;;5038103;28;20718;-62
2022/08/06 11:31:50;;;;;;;3.08;0.60;;;21.30;46.90;;;;;;5036484;28;20484;-62
2022/08/06 11:34:18;;;;;;;2.50;0.60;;;21.10;46.10;;;;;;5033766;28;20048;-62
2022/08/06 11:36:48;;;;;;;3.45;0.50;;;20.90;45.40;;;;;;5024485;28;20515;-61
2022/08/06 11:39:14;;;;;;;2.55;0.52;;;20.90;47.20;;;;;;5017523;28;20049;-62
2022/08/06 11:41:47;;;;;;;4.22;0.50;;;21.30;49.00;;;;;;5016776;28;20106;-62
2022/08/06 11:44:17;;;;;;;2.05;0.70;;;21.30;46.60;;;;;;5003063;28;20045;-62
2022/08/06 11:46:47;;;;;;;2.10;0.57;;;21.30;47.90;;;;;;5036798;28;20057;-62
2022/08/06 11:49:18;;;;;;;2.60;0.70;;;21.60;47.60;;;;;;5005237;28;20049;-62
2022/08/06 11:51:54;;;;;;;1.70;0.80;;;21.90;47.60;;;;;;5017797;28;20132;-62
2022/08/06 11:54:32;;;;;;;3.58;0.60;;;22.20;48.20;;;;;;5037412;28;20050;-62
2022/08/06 11:57:01;;;;;;;2.00;0.70;;;22.20;47.00;;;;;;5000101;28;20378;-62
2022/08/06 11:59:32;;;;;;;2.55;0.47;;;22.40;48.00;;;;;;5037356;28;20458;-62
2022/08/06 12:01:58;;;;;;;1.42;0.50;;;22.30;43.30;;;;;;5022205;28;20041;-62
2022/08/06 12:04:39;;;;;;;0.60;0.20;;;22.20;45.40;;;;;;5035654;28;20045;-62
2022/08/06 12:07:30;;;;;;;1.60;0.52;;;22.40;46.00;;;;;;5039688;28;20044;-62
2022/08/06 12:10:04;;;;;;;3.70;0.50;;;22.50;45.80;;;;;;5038431;28;20084;-61
2022/08/06 12:12:33;;;;;;;1.88;0.50;;;22.70;44.60;;;;;;5023048;28;20045;-61
2022/08/06 12:15:00;;;;;;;2.38;0.57;;;22.80;46.40;;;;;;5018503;28;20111;-62
2022/08/06 12:17:26;;;;;;;1.98;0.40;;;22.70;45.50;;;;;;5022434;28;20059;-62
2022/08/06 12:19:55;;;;;;;3.17;0.60;;;22.50;45.80;;;;;;5006428;28;20265;-62
2022/08/06 12:22:21;;;;;;;2.22;0.50;;;22.30;45.40;;;;;;5003325;28;20489;-61
2022/08/06 12:24:57;;;;;;;2.17;0.50;;;22.20;44.50;;;;;;5021054;28;20513;-63
2022/08/06 12:27:23;;;;;;;1.05;0.30;;;22.30;45.00;;;;;;5036788;28;20052;-63
2022/08/06 12:29:53;;;;;;;1.00;0.40;;;22.30;46.50;;;;;;5036452;28;20057;-63
2022/08/06 12:32:35;;;;;;;2.88;0.50;;;22.40;47.40;;;;;;5021780;28;20635;-62
2022/08/06 12:35:12;;;;;;;2.03;0.50;;;22.40;46.90;;;;;;5037888;28;20061;-63
2022/08/06 12:37:43;;;;;;;3.43;0.40;;;22.40;46.60;;;;;;5055638;28;20506;-63
2022/08/06 12:40:28;;;;;;;1.17;0.50;;;22.20;46.90;;;;;;5032956;28;20497;-63
2022/08/06 12:43:09;;;;;;;2.53;0.70;;;22.10;47.00;;;;;;5010328;28;20140;-62
2022/08/06 12:45:35;;;;;;;0.60;0.30;;;22.10;48.40;;;;;;4988786;28;20769;-62
2022/08/06 12:48:01;;;;;;;1.02;0.43;;;22.50;47.50;;;;;;5017565;28;20053;-62
2022/08/06 12:50:27;;;;;;;3.80;0.60;;;22.80;46.80;;;;;;5038409;28;20055;-62
2022/08/06 12:53:13;;;;;;;1.95;0.40;;;23.00;47.40;;;;;;5015069;28;20040;-61
2022/08/06 12:55:42;;;;;;;1.80;0.40;;;23.30;46.10;;;;;;4988959;28;20131;-62
2022/08/06 12:58:09;;;;;;;1.75;0.47;;;23.60;45.80;;;;;;5035731;28;20052;-62
2022/08/06 13:00:35;;;;;;;7.75;0.50;;;23.80;44.40;;;;;;4997712;28;20111;-62
2022/08/06 13:03:00;;;;;;;0.63;0.32;;;23.90;42.40;;;;;;5016708;28;20659;-61
2022/08/06 13:05:27;;;;;;;1.92;0.40;;;23.80;42.80;;;;;;5018424;28;20486;-62